createdAt,value
2019-02-16T00:00:07.335Z,6.50
2019-02-16T00:02:36.040Z,8.00
2019-02-16T00:05:05.350Z,7.47
2019-02-16T00:07:33.744Z,6.30
2019-02-16T00:10:02.161Z,6.20
2019-02-16T00:12:30.559Z,6.12
2019-02-16T00:14:58.968Z,6.67
2019-02-16T00:17:27.388Z,7.33
2019-02-16T00:19:55.807Z,6.30
2019-02-16T00:22:24.220Z,7.12
2019-02-16T00:24:52.633Z,6.75
2019-02-16T00:27:21.055Z,7.10
2019-02-16T00:29:49.449Z,7.00
2019-02-16T00:32:17.843Z,6.40
2019-02-16T00:34:46.246Z,7.10
2019-02-16T00:37:14.680Z,7.92
2019-02-16T00:39:43.083Z,7.78
2019-02-16T00:42:11.573Z,5.87
2019-02-16T00:44:39.968Z,5.90
2019-02-16T00:47:08.378Z,5.95
2019-02-16T00:49:36.759Z,6.15
2019-02-16T00:52:05.183Z,6.30
2019-02-16T00:54:33.611Z,7.17
2019-02-16T00:57:02.004Z,6.47
2019-02-16T00:59:30.433Z,6.42
2019-02-16T01:01:58.899Z,9.60
2019-02-16T01:04:27.298Z,7.83
2019-02-16T01:06:56.639Z,7.58
2019-02-16T01:09:25.049Z,7.28
2019-02-16T01:11:53.772Z,6.15
2019-02-16T01:14:22.176Z,6.00
2019-02-16T01:16:50.595Z,6.65
2019-02-16T01:19:19.024Z,6.62
2019-02-16T01:21:47.416Z,6.22
2019-02-16T01:24:15.807Z,7.08
2019-02-16T01:26:44.217Z,8.10
2019-02-16T01:29:12.610Z,7.53
2019-02-16T01:31:41.028Z,7.05
2019-02-16T01:34:09.453Z,7.73
2019-02-16T01:36:37.852Z,7.40
2019-02-16T01:39:06.971Z,7.72
2019-02-16T01:41:35.375Z,7.80
2019-02-16T01:44:04.710Z,8.45
2019-02-16T01:46:33.151Z,7.83
2019-02-16T01:49:01.544Z,8.73
2019-02-16T01:51:32.039Z,7.97
2019-02-16T01:54:00.102Z,8.10
2019-02-16T01:56:28.492Z,8.60
2019-02-16T01:58:56.900Z,7.65
2019-02-16T02:01:25.374Z,7.87
2019-02-16T02:03:53.782Z,7.62
2019-02-16T02:06:22.180Z,8.35
2019-02-16T02:08:50.660Z,7.10
2019-02-16T02:11:19.104Z,7.30
2019-02-16T02:13:47.535Z,7.73
2019-02-16T02:16:15.918Z,8.08
2019-02-16T02:18:44.324Z,8.50
2019-02-16T02:21:12.723Z,8.18
2019-02-16T02:23:41.132Z,8.03
2019-02-16T02:26:09.519Z,7.15
2019-02-16T02:28:37.936Z,8.27
2019-02-16T02:31:06.320Z,7.12
2019-02-16T02:33:34.969Z,8.90
2019-02-16T02:36:03.360Z,8.40
2019-02-16T02:38:31.775Z,7.78
2019-02-16T02:41:00.177Z,7.20
2019-02-16T02:43:28.588Z,8.38
2019-02-16T02:45:56.982Z,7.05
2019-02-16T02:48:25.374Z,9.13
2019-02-16T02:50:53.789Z,7.95
2019-02-16T02:53:30.648Z,8.23
2019-02-16T02:55:52.420Z,7.30
2019-02-16T02:58:20.819Z,7.30
2019-02-16T03:00:49.224Z,7.60
2019-02-16T03:03:17.620Z,21.10
2019-02-16T03:05:46.020Z,10.45
2019-02-16T03:08:14.435Z,8.30
2019-02-16T03:10:42.844Z,8.15
2019-02-16T03:13:11.279Z,7.95
2019-02-16T03:15:39.698Z,7.47
2019-02-16T03:18:08.114Z,8.88
2019-02-16T03:20:36.823Z,8.23
2019-02-16T03:23:19.325Z,9.00
2019-02-16T03:25:54.145Z,8.15
2019-02-16T03:28:28.608Z,7.87
2019-02-16T03:31:26.017Z,8.90
2019-02-16T03:34:00.500Z,8.85
2019-02-16T03:36:43.876Z,8.10
2019-02-16T03:39:14.574Z,10.55
2019-02-16T03:41:42.980Z,7.53
2019-02-16T03:44:11.395Z,8.00
2019-02-16T03:46:39.783Z,7.30
2019-02-16T03:49:08.191Z,8.00
2019-02-16T03:51:36.587Z,8.20
2019-02-16T03:54:05.028Z,8.38
2019-02-16T03:56:33.395Z,7.90
2019-02-16T03:59:01.809Z,7.67
2019-02-16T04:01:30.202Z,8.40
2019-02-16T04:03:58.613Z,7.97
2019-02-16T04:06:27.031Z,8.10
2019-02-16T04:08:55.443Z,8.78
2019-02-16T04:11:23.840Z,7.85
2019-02-16T04:13:52.231Z,7.22
2019-02-16T04:16:20.631Z,7.47
2019-02-16T04:18:49.376Z,7.62
2019-02-16T04:21:17.781Z,10.70
2019-02-16T04:23:46.201Z,9.80
2019-02-16T04:26:14.627Z,9.40
2019-02-16T04:28:43.013Z,9.13
2019-02-16T04:31:11.428Z,8.40
2019-02-16T04:33:39.823Z,9.30
2019-02-16T04:36:08.243Z,10.30
2019-02-16T04:38:36.657Z,9.55
2019-02-16T04:41:05.056Z,9.93
2019-02-16T04:43:33.455Z,7.95
2019-02-16T04:46:01.863Z,8.20
2019-02-16T04:48:30.255Z,7.90
2019-02-16T04:50:58.745Z,7.92
2019-02-16T04:53:27.166Z,8.07
2019-02-16T04:55:55.562Z,8.40
2019-02-16T04:58:23.996Z,8.00
2019-02-16T05:00:52.439Z,7.37
2019-02-16T05:03:20.835Z,10.20
2019-02-16T05:05:49.295Z,8.50
2019-02-16T05:08:17.700Z,8.25
2019-02-16T05:10:46.110Z,8.18
2019-02-16T05:13:14.520Z,7.97
2019-02-16T05:15:42.935Z,8.58
2019-02-16T05:18:11.334Z,10.30
2019-02-16T05:20:39.747Z,8.65
2019-02-16T05:23:08.145Z,9.93
2019-02-16T05:25:36.559Z,9.20
2019-02-16T05:28:05.014Z,11.05
2019-02-16T05:30:33.447Z,11.63
2019-02-16T05:33:01.859Z,11.50
2019-02-16T05:35:30.257Z,12.85
2019-02-16T05:37:58.669Z,12.88
2019-02-16T05:40:27.085Z,9.90
2019-02-16T05:42:55.479Z,11.57
2019-02-16T05:45:23.877Z,11.75
2019-02-16T05:47:52.301Z,10.10
2019-02-16T05:50:20.719Z,10.48
2019-02-16T05:52:54.392Z,9.53
2019-02-16T05:55:19.301Z,9.43
2019-02-16T05:57:47.735Z,9.60
2019-02-16T06:00:17.783Z,10.13
2019-02-16T06:02:46.191Z,11.35
2019-02-16T06:05:14.717Z,9.48
2019-02-16T06:07:43.125Z,9.15
2019-02-16T06:10:11.503Z,9.65
2019-02-16T06:12:39.927Z,9.23
2019-02-16T06:15:09.161Z,7.80
2019-02-16T06:17:37.591Z,7.78
2019-02-16T06:20:07.940Z,8.20
2019-02-16T06:22:36.381Z,8.10
2019-02-16T06:25:05.923Z,9.00
2019-02-16T06:27:34.317Z,7.95
2019-02-16T06:30:02.729Z,7.97
2019-02-16T06:32:31.150Z,7.80
2019-02-16T06:35:01.176Z,7.10
2019-02-16T06:37:29.593Z,8.80
2019-02-16T06:39:58.001Z,8.00
2019-02-16T06:42:26.414Z,8.20
2019-02-16T06:44:54.812Z,7.63
2019-02-16T06:47:23.255Z,8.90
2019-02-16T06:49:51.657Z,8.08
2019-02-16T06:52:20.075Z,8.60
2019-02-16T06:54:48.480Z,8.33
2019-02-16T06:57:18.563Z,8.78
2019-02-16T06:59:47.028Z,10.68
2019-02-16T07:02:15.422Z,8.88
2019-02-16T07:04:43.838Z,10.35
2019-02-16T07:07:12.237Z,9.15
2019-02-16T07:09:40.661Z,8.00
2019-02-16T07:12:09.087Z,8.68
2019-02-16T07:14:37.504Z,8.90
2019-02-16T07:17:10.204Z,8.40
2019-02-16T07:19:40.285Z,8.07
2019-02-16T07:22:08.708Z,8.43
2019-02-16T07:24:37.136Z,8.45
2019-02-16T07:27:05.552Z,9.63
2019-02-16T07:29:33.971Z,8.00
2019-02-16T07:32:02.371Z,7.67
2019-02-16T07:34:31.050Z,8.35
2019-02-16T07:36:59.519Z,7.70
2019-02-16T07:39:27.963Z,9.03
2019-02-16T07:41:57.363Z,9.28
2019-02-16T07:44:27.499Z,8.98
2019-02-16T07:46:57.567Z,7.80
2019-02-16T07:49:27.663Z,9.08
2019-02-16T07:52:00.565Z,8.98
2019-02-16T07:54:33.638Z,8.40
2019-02-16T07:57:03.672Z,9.08
2019-02-16T07:59:33.739Z,9.48
2019-02-16T08:02:03.781Z,8.40
2019-02-16T08:04:33.830Z,9.10
2019-02-16T08:07:06.680Z,8.83
2019-02-16T08:09:42.630Z,9.38
2019-02-16T08:12:15.631Z,9.10
2019-02-16T08:14:48.624Z,9.78
2019-02-16T08:17:18.703Z,9.33
2019-02-16T08:19:54.965Z,8.70
2019-02-16T08:22:41.746Z,10.05
2019-02-16T08:25:11.792Z,8.38
2019-02-16T08:27:41.836Z,8.70
2019-02-16T08:30:14.692Z,9.30
2019-02-16T08:32:56.956Z,9.45
2019-02-16T08:35:38.978Z,9.18
2019-02-16T08:38:11.984Z,8.90
2019-02-16T08:40:50.780Z,9.40
2019-02-16T08:43:23.573Z,9.80
2019-02-16T08:45:53.622Z,9.85
2019-02-16T08:48:35.641Z,9.35
2019-02-16T08:51:17.496Z,9.30
2019-02-16T08:53:49.875Z,9.03
2019-02-16T08:56:19.327Z,9.65
2019-02-16T08:58:52.283Z,10.00
2019-02-16T09:01:25.295Z,10.80
2019-02-16T09:04:01.331Z,9.90
2019-02-16T09:06:46.456Z,10.40
2019-02-16T09:09:35.049Z,10.35
2019-02-16T09:12:05.998Z,10.43
2019-02-16T09:14:36.232Z,10.20
2019-02-16T09:17:09.267Z,12.40
2019-02-16T09:19:51.276Z,10.40
2019-02-16T09:22:21.514Z,10.00
2019-02-16T09:25:00.503Z,11.35
2019-02-16T09:27:30.637Z,10.30
2019-02-16T09:30:03.653Z,10.40
2019-02-16T09:32:49.940Z,11.43
2019-02-16T09:35:23.092Z,11.07
2019-02-16T09:37:53.167Z,11.60
2019-02-16T09:40:38.265Z,11.90
2019-02-16T09:43:08.333Z,11.85
2019-02-16T09:45:38.399Z,12.10
2019-02-16T09:48:08.445Z,11.75
2019-02-16T09:50:44.225Z,11.40
2019-02-16T09:53:16.837Z,12.30
2019-02-16T09:55:53.080Z,11.57
2019-02-16T09:58:25.656Z,11.93
2019-02-16T10:01:07.899Z,12.07
2019-02-16T10:03:43.947Z,15.00
2019-02-16T10:06:14.011Z,13.10
2019-02-16T10:08:44.151Z,12.68
2019-02-16T10:11:26.467Z,13.65
2019-02-16T10:14:05.339Z,13.35
2019-02-16T10:16:47.279Z,13.28
2019-02-16T10:19:29.570Z,13.48
2019-02-16T10:22:02.377Z,13.62
2019-02-16T10:24:49.134Z,13.65
2019-02-16T10:27:19.211Z,15.53
2019-02-16T10:29:50.256Z,14.23
2019-02-16T10:32:36.557Z,15.05
2019-02-16T10:35:07.356Z,13.85
2019-02-16T10:37:37.412Z,14.55
2019-02-16T10:40:16.917Z,14.87
2019-02-16T10:42:55.863Z,14.33
2019-02-16T10:45:29.248Z,14.50
2019-02-16T10:47:59.356Z,15.30
2019-02-16T10:50:32.367Z,15.00
2019-02-16T10:53:02.440Z,15.55
2019-02-16T10:55:50.815Z,15.28
2019-02-16T10:58:30.871Z,16.15
2019-02-16T11:01:00.928Z,15.80
2019-02-16T11:03:30.989Z,16.57
2019-02-16T11:06:04.047Z,16.07
2019-02-16T11:08:37.189Z,15.80
2019-02-16T11:11:07.239Z,16.57
2019-02-16T11:13:37.396Z,16.02
2019-02-16T11:16:13.308Z,16.10
2019-02-16T11:18:52.207Z,17.57
2019-02-16T11:21:31.454Z,18.27
2019-02-16T11:24:04.459Z,20.30
2019-02-16T11:26:49.491Z,17.95
2019-02-16T11:29:28.456Z,17.20
2019-02-16T11:31:58.506Z,17.10
2019-02-16T11:34:34.557Z,18.07
2019-02-16T11:37:07.610Z,18.85
2019-02-16T11:39:40.448Z,18.67
2019-02-16T11:42:19.676Z,18.90
2019-02-16T11:44:52.444Z,18.65
2019-02-16T11:47:25.843Z,17.92
2019-02-16T11:50:02.125Z,18.50
2019-02-16T11:52:48.522Z,17.98
2019-02-16T11:55:18.637Z,18.10
2019-02-16T11:58:06.873Z,19.07
2019-02-16T12:00:37.243Z,19.12
2019-02-16T12:03:16.195Z,19.48
2019-02-16T12:05:51.755Z,19.07
2019-02-16T12:08:30.649Z,19.10
2019-02-16T12:11:01.688Z,19.05
2019-02-16T12:13:43.948Z,19.83
2019-02-16T12:16:30.412Z,19.37
2019-02-16T12:19:00.456Z,19.05
2019-02-16T12:21:42.796Z,19.25
2019-02-16T12:24:12.972Z,19.27
2019-02-16T12:26:43.028Z,19.05
2019-02-16T12:29:19.252Z,19.03
2019-02-16T12:32:04.512Z,20.57
2019-02-16T12:34:37.275Z,19.67
2019-02-16T12:37:07.394Z,19.25
2019-02-16T12:39:37.459Z,19.45
2019-02-16T12:42:07.548Z,19.60
2019-02-16T12:44:49.730Z,19.77
2019-02-16T12:47:22.508Z,20.45
2019-02-16T12:49:58.317Z,19.35
2019-02-16T12:52:31.512Z,18.82
2019-02-16T12:55:01.861Z,18.83
2019-02-16T12:57:47.043Z,20.85
2019-02-16T13:00:23.009Z,19.55
2019-02-16T13:02:53.051Z,20.25
2019-02-16T13:05:39.457Z,19.95
2019-02-16T13:08:15.577Z,19.45
2019-02-16T13:10:45.714Z,19.73
2019-02-16T13:13:15.767Z,19.15
2019-02-16T13:15:57.584Z,19.57
2019-02-16T13:18:27.673Z,19.05
2019-02-16T13:20:57.771Z,18.40
2019-02-16T13:23:28.745Z,18.75
2019-02-16T13:26:15.059Z,19.50
2019-02-16T13:28:45.127Z,18.00
2019-02-16T13:31:18.111Z,18.60
2019-02-16T13:33:51.125Z,19.55
2019-02-16T13:36:23.860Z,18.90
2019-02-16T13:38:53.916Z,19.60
2019-02-16T13:41:39.024Z,18.92
2019-02-16T13:44:09.093Z,18.25
2019-02-16T13:46:44.944Z,19.77
2019-02-16T13:49:15.025Z,19.32
2019-02-16T13:51:47.735Z,19.80
2019-02-16T13:54:17.823Z,18.62
2019-02-16T13:56:50.885Z,20.43
2019-02-16T13:59:20.908Z,18.98
2019-02-16T14:02:00.032Z,18.60
2019-02-16T14:04:46.508Z,19.10
2019-02-16T14:07:22.600Z,19.23
2019-02-16T14:09:52.674Z,19.27
2019-02-16T14:12:34.655Z,20.35
2019-02-16T14:15:10.738Z,19.00
2019-02-16T14:17:40.846Z,20.20
2019-02-16T14:20:09.342Z,19.80
2019-02-16T14:22:37.796Z,19.30
2019-02-16T14:25:08.372Z,19.10
2019-02-16T14:27:36.775Z,18.60
2019-02-16T14:30:08.892Z,19.55
2019-02-16T14:32:37.288Z,19.12
2019-02-16T14:35:07.471Z,19.57
2019-02-16T14:37:43.684Z,20.20
2019-02-16T14:40:12.647Z,19.42
2019-02-16T14:42:41.060Z,19.90
2019-02-16T14:45:12.272Z,19.60
2019-02-16T14:47:40.704Z,22.10
2019-02-16T14:50:10.268Z,21.00
2019-02-16T14:52:38.719Z,20.08
2019-02-16T14:55:10.396Z,20.08
2019-02-16T14:57:38.962Z,20.52
2019-02-16T15:00:12.407Z,19.65
2019-02-16T15:02:40.813Z,21.30
2019-02-16T15:05:09.863Z,20.43
2019-02-16T15:07:38.287Z,20.05
2019-02-16T15:10:14.030Z,21.47
2019-02-16T15:12:42.439Z,21.07
2019-02-16T15:15:11.716Z,20.08
2019-02-16T15:17:40.143Z,20.40
2019-02-16T15:20:14.089Z,22.40
2019-02-16T15:22:42.534Z,21.35
2019-02-16T15:25:11.987Z,22.37
2019-02-16T15:27:40.568Z,20.72
2019-02-16T15:30:14.615Z,21.90
2019-02-16T15:32:43.153Z,21.97
2019-02-16T15:35:11.952Z,22.42
2019-02-16T15:37:40.375Z,28.73
2019-02-16T15:40:10.403Z,23.07
2019-02-16T15:42:38.808Z,23.45
2019-02-16T15:45:12.395Z,21.97
2019-02-16T15:47:40.825Z,21.90
2019-02-16T15:50:15.184Z,23.62
2019-02-16T15:52:43.610Z,21.75
2019-02-16T15:55:12.680Z,22.20
2019-02-16T15:57:45.315Z,21.48
2019-02-16T16:00:17.540Z,21.60
2019-02-16T16:02:46.683Z,21.87
2019-02-16T16:05:15.185Z,23.05
2019-02-16T16:07:45.229Z,24.70
2019-02-16T16:10:21.032Z,23.80
2019-02-16T16:12:51.083Z,23.20
2019-02-16T16:15:23.919Z,23.67
2019-02-16T16:18:02.875Z,24.77
2019-02-16T16:20:32.944Z,24.32
2019-02-16T16:23:02.980Z,25.57
2019-02-16T16:25:49.303Z,24.40
2019-02-16T16:28:22.412Z,29.12
2019-02-16T16:30:52.523Z,28.45
2019-02-16T16:33:37.572Z,27.07
2019-02-16T16:36:13.380Z,24.92
2019-02-16T16:38:49.475Z,25.03
2019-02-16T16:41:31.565Z,25.12
2019-02-16T16:44:04.626Z,23.30
2019-02-16T16:46:43.772Z,22.98
2019-02-16T16:49:16.820Z,22.85
2019-02-16T16:51:53.064Z,24.72
2019-02-16T16:54:24.171Z,25.65
2019-02-16T16:56:57.465Z,26.33
2019-02-16T16:59:30.433Z,27.02
2019-02-16T17:02:12.412Z,28.23
2019-02-16T17:04:42.483Z,26.02
2019-02-16T17:07:12.557Z,25.40
2019-02-16T17:09:59.218Z,29.32
2019-02-16T17:12:35.356Z,26.12
2019-02-16T17:15:05.515Z,26.42
2019-02-16T17:17:44.720Z,27.70
2019-02-16T17:20:14.818Z,26.70
2019-02-16T17:23:03.542Z,26.70
2019-02-16T17:25:45.875Z,30.72
2019-02-16T17:28:16.936Z,29.15
2019-02-16T17:30:46.977Z,28.23
2019-02-16T17:33:19.720Z,27.50
2019-02-16T17:35:49.788Z,27.60
2019-02-16T17:38:26.022Z,27.40
2019-02-16T17:41:11.384Z,26.35
2019-02-16T17:43:56.383Z,25.08
2019-02-16T17:46:35.462Z,25.37
2019-02-16T17:49:07.982Z,23.40
2019-02-16T17:51:47.328Z,23.30
2019-02-16T17:54:17.408Z,26.20
2019-02-16T17:56:59.479Z,24.63
2019-02-16T17:59:29.543Z,24.43
2019-02-16T18:02:14.883Z,25.60
2019-02-16T18:04:50.680Z,25.00
2019-02-16T18:07:38.877Z,25.12
2019-02-16T18:10:09.624Z,24.72
2019-02-16T18:12:56.216Z,25.72
2019-02-16T18:15:29.627Z,25.92
2019-02-16T18:17:59.676Z,25.02
2019-02-16T18:20:29.757Z,25.02
2019-02-16T18:23:00.101Z,28.03
2019-02-16T18:25:33.053Z,25.20
2019-02-16T18:28:08.930Z,26.20
2019-02-16T18:30:38.979Z,26.30
2019-02-16T18:33:27.450Z,27.40
2019-02-16T18:36:00.252Z,26.75
2019-02-16T18:38:46.655Z,26.20
2019-02-16T18:41:28.856Z,24.92
2019-02-16T18:43:59.949Z,26.30
2019-02-16T18:46:32.844Z,26.40
2019-02-16T18:49:02.936Z,25.35
2019-02-16T18:51:33.008Z,26.77
2019-02-16T18:54:03.927Z,25.97
2019-02-16T18:56:42.702Z,23.85
2019-02-16T18:59:21.572Z,25.60
2019-02-16T19:02:03.559Z,26.87
2019-02-16T19:04:33.622Z,27.62
2019-02-16T19:07:06.356Z,27.77
2019-02-16T19:09:42.156Z,25.65
2019-02-16T19:15:04.327Z,26.85
2019-02-16T19:17:37.148Z,26.30
2019-02-16T19:20:15.764Z,27.52
2019-02-16T19:22:48.876Z,27.73
2019-02-16T19:25:37.215Z,27.10
2019-02-16T19:28:22.520Z,27.82
2019-02-16T19:30:54.510Z,27.13
2019-02-16T19:33:30.737Z,27.75
2019-02-16T19:36:03.484Z,27.37
2019-02-16T19:38:42.591Z,27.70
2019-02-16T19:41:15.317Z,26.97
2019-02-16T19:43:57.269Z,26.30
2019-02-16T19:46:30.052Z,25.97
2019-02-16T19:49:00.090Z,26.45
2019-02-16T19:51:48.247Z,26.05
2019-02-16T19:54:35.008Z,26.77
2019-02-16T19:57:08.056Z,26.60
2019-02-16T19:59:40.804Z,28.50
2019-02-16T20:02:16.950Z,27.25
2019-02-16T20:04:50.341Z,26.87
2019-02-16T20:07:29.539Z,28.38
2019-02-16T20:10:02.372Z,26.97
2019-02-16T20:12:49.336Z,29.02
2019-02-16T20:15:22.084Z,30.57
2019-02-16T20:17:55.109Z,27.58
2019-02-16T20:20:25.160Z,29.25
2019-02-16T20:23:13.700Z,28.53
2019-02-16T20:25:49.318Z,29.70
2019-02-16T20:28:28.450Z,27.63
2019-02-16T20:31:04.378Z,29.30
2019-02-16T20:33:51.200Z,29.65
2019-02-16T20:36:39.285Z,27.97
2019-02-16T20:39:25.924Z,28.80
2019-02-16T20:42:11.330Z,28.90
2019-02-16T20:44:43.922Z,28.73
2019-02-16T20:47:16.671Z,28.70
2019-02-16T20:50:03.302Z,29.55
2019-02-16T20:52:36.300Z,29.00
2019-02-16T20:55:12.640Z,29.20
2019-02-16T20:57:47.914Z,29.67
2019-02-16T21:00:19.803Z,29.37
2019-02-16T21:02:58.927Z,28.70
2019-02-16T21:05:34.718Z,31.82
2019-02-16T21:08:04.787Z,34.13
2019-02-16T21:10:34.828Z,34.73
2019-02-16T21:13:04.879Z,37.28
2019-02-16T21:15:37.722Z,36.53
2019-02-16T21:18:13.725Z,34.48
2019-02-16T21:20:58.917Z,34.48
2019-02-16T21:23:37.763Z,34.80
2019-02-16T21:26:19.839Z,33.70
2019-02-16T21:28:49.887Z,33.20
2019-02-16T21:31:25.680Z,32.83
2019-02-16T21:33:55.747Z,33.30
2019-02-16T21:36:31.519Z,31.00
2019-02-16T21:39:03.417Z,31.85
2019-02-16T21:41:42.315Z,29.70
2019-02-16T21:44:13.763Z,30.62
2019-02-16T21:46:47.030Z,28.35
2019-02-16T21:49:26.055Z,29.05
2019-02-16T21:51:56.086Z,30.97
2019-02-16T21:54:29.105Z,31.95
2019-02-16T21:56:59.151Z,32.30
2019-02-16T21:59:35.281Z,31.62
2019-02-16T22:02:08.043Z,33.08
2019-02-16T22:04:56.171Z,31.68
2019-02-16T22:07:28.957Z,31.57
2019-02-16T22:10:01.920Z,32.13
2019-02-16T22:12:31.972Z,31.50
2019-02-16T22:15:02.501Z,31.17
2019-02-16T22:17:30.567Z,30.85
2019-02-16T22:19:58.955Z,30.80
2019-02-16T22:22:27.372Z,30.68
2019-02-16T22:24:55.783Z,29.07
2019-02-16T22:27:24.184Z,29.37
2019-02-16T22:29:52.581Z,30.30
2019-02-16T22:32:21.009Z,29.65
2019-02-16T22:34:49.467Z,29.75
2019-02-16T22:37:17.894Z,29.42
2019-02-16T22:39:46.284Z,28.90
2019-02-16T22:42:14.692Z,28.50
2019-02-16T22:44:43.092Z,28.73
2019-02-16T22:47:11.538Z,27.90
2019-02-16T22:49:39.923Z,29.00
2019-02-16T22:52:08.357Z,30.05
2019-02-16T22:54:36.785Z,29.82
2019-02-16T22:57:05.185Z,28.05
2019-02-16T22:59:33.599Z,29.13
2019-02-16T23:02:02.000Z,29.48
2019-02-16T23:04:30.413Z,28.55
2019-02-16T23:06:58.815Z,28.75
2019-02-16T23:09:27.683Z,30.07
2019-02-16T23:11:56.104Z,30.92
2019-02-16T23:14:24.520Z,29.87
2019-02-16T23:16:52.965Z,27.98
2019-02-16T23:19:21.355Z,29.75
2019-02-16T23:21:49.764Z,29.52
2019-02-16T23:24:18.540Z,31.23
2019-02-16T23:26:46.944Z,29.85
2019-02-16T23:29:15.345Z,32.33
2019-02-16T23:31:43.757Z,31.00
2019-02-16T23:34:12.440Z,28.77
2019-02-16T23:36:40.844Z,29.82
2019-02-16T23:39:10.028Z,31.50
2019-02-16T23:41:38.431Z,31.50
2019-02-16T23:44:06.876Z,31.82
2019-02-16T23:46:35.291Z,32.00
2019-02-16T23:49:03.726Z,31.90
2019-02-16T23:51:32.109Z,33.05
2019-02-16T23:54:00.525Z,32.20
2019-02-16T23:56:28.945Z,30.88
2019-02-16T23:58:57.388Z,31.82
